createdAt,value
2019-05-15T00:01:40.981Z,99.60
2019-05-15T00:04:09.153Z,99.90
2019-05-15T00:06:36.140Z,99.30
2019-05-15T00:09:05.376Z,99.20
2019-05-15T00:11:33.014Z,99.70
2019-05-15T00:14:00.756Z,98.70
2019-05-15T00:16:29.043Z,99.10
2019-05-15T00:18:58.991Z,99.00
2019-05-15T00:21:28.652Z,98.10
2019-05-15T00:23:55.957Z,99.00
2019-05-15T00:26:24.539Z,99.20
2019-05-15T00:28:52.210Z,99.20
2019-05-15T00:31:19.853Z,99.80
2019-05-15T00:33:48.224Z,99.70
2019-05-15T00:36:16.320Z,99.60
2019-05-15T00:38:44.234Z,99.80
2019-05-15T00:41:11.891Z,99.00
2019-05-15T00:43:39.564Z,98.00
2019-05-15T00:46:09.166Z,98.90
2019-05-15T00:48:36.586Z,99.50
2019-05-15T00:51:04.236Z,98.40
2019-05-15T00:53:31.919Z,98.40
2019-05-15T00:55:59.555Z,98.50
2019-05-15T00:58:28.290Z,99.30
2019-05-15T01:00:56.576Z,99.40
2019-05-15T01:03:24.247Z,99.80
2019-05-15T01:05:51.956Z,99.90
2019-05-15T01:08:19.707Z,99.60
2019-05-15T01:10:48.889Z,99.50
2019-05-15T01:13:18.815Z,99.80
2019-05-15T01:15:46.233Z,99.90
2019-05-15T01:18:13.911Z,99.70
2019-05-15T01:20:41.928Z,99.50
2019-05-15T01:23:09.565Z,99.50
2019-05-15T01:25:38.910Z,98.70
2019-05-15T01:28:09.090Z,99.10
2019-05-15T01:30:36.371Z,98.90
2019-05-15T01:33:04.073Z,98.90
2019-05-15T01:35:31.747Z,99.60
2019-05-15T01:37:59.663Z,99.90
2019-05-15T01:40:28.941Z,99.50
2019-05-15T01:42:58.261Z,99.90
2019-05-15T01:45:28.486Z,99.90
2019-05-15T01:47:55.536Z,99.80
2019-05-15T01:50:24.032Z,99.60
2019-05-15T01:52:51.763Z,99.30
2019-05-15T01:55:19.491Z,99.50
2019-05-15T01:57:48.714Z,98.60
2019-05-15T02:00:18.695Z,99.60
2019-05-15T02:03:10.878Z,99.30
2019-05-15T02:05:39.111Z,99.00
2019-05-15T02:08:08.206Z,99.20
2019-05-15T02:10:38.795Z,99.10
2019-05-15T02:13:05.560Z,99.50
2019-05-15T02:15:33.231Z,99.20
2019-05-15T02:18:00.867Z,99.60
2019-05-15T02:20:29.150Z,99.70
2019-05-15T02:22:59.064Z,99.50
2019-05-15T02:25:28.067Z,99.40
2019-05-15T02:27:55.830Z,99.20
2019-05-15T02:30:28.906Z,99.50
2019-05-15T02:32:52.864Z,99.90
2019-05-15T02:35:20.533Z,99.70
2019-05-15T02:37:48.902Z,99.90
2019-05-15T02:40:18.990Z,99.90
2019-05-15T02:42:49.017Z,99.90
2019-05-15T02:45:19.298Z,99.90
2019-05-15T02:47:45.375Z,99.90
2019-05-15T02:50:13.222Z,99.80
2019-05-15T02:52:45.195Z,99.50
2019-05-15T02:55:10.343Z,99.90
2019-05-15T02:57:39.493Z,99.50
2019-05-15T03:00:10.841Z,99.20
2019-05-15T03:02:40.720Z,99.90
2019-05-15T03:05:09.386Z,99.50
2019-05-15T03:07:36.260Z,99.30
2019-05-15T03:10:04.376Z,99.90
2019-05-15T03:12:32.015Z,99.90
2019-05-15T03:15:00.028Z,99.90
2019-05-15T03:17:29.658Z,99.90
2019-05-15T03:19:59.054Z,99.90
2019-05-15T03:22:29.364Z,99.90
2019-05-15T03:24:59.073Z,99.90
2019-05-15T03:27:25.340Z,99.70
2019-05-15T03:29:53.008Z,99.20
2019-05-15T03:32:32.920Z,99.90
2019-05-15T03:34:56.248Z,99.70
2019-05-15T03:37:22.122Z,99.50
2019-05-15T03:39:51.768Z,99.20
2019-05-15T03:42:19.092Z,99.60
2019-05-15T03:44:49.985Z,99.60
2019-05-15T03:47:19.173Z,99.90
2019-05-15T03:49:49.132Z,99.60
2019-05-15T03:52:15.150Z,99.80
2019-05-15T03:54:42.848Z,99.90
2019-05-15T03:57:10.487Z,99.60
2019-05-15T03:59:39.957Z,99.70
2019-05-15T04:02:08.631Z,99.20
2019-05-15T04:04:38.794Z,99.90
2019-05-15T04:07:08.997Z,99.90
2019-05-15T04:09:38.471Z,99.90
2019-05-15T04:12:04.608Z,99.90
2019-05-15T04:14:32.283Z,99.90
2019-05-15T04:16:59.943Z,99.90
2019-05-15T04:19:29.706Z,99.90
2019-05-15T04:21:59.974Z,99.90
2019-05-15T04:24:29.856Z,99.90
2019-05-15T04:26:59.919Z,99.90
2019-05-15T04:29:28.970Z,99.90
2019-05-15T04:32:02.452Z,99.90
2019-05-15T04:34:25.070Z,99.90
2019-05-15T04:36:52.728Z,99.90
2019-05-15T04:39:20.363Z,99.90
2019-05-15T04:41:50.040Z,99.50
2019-05-15T04:44:19.329Z,98.50
2019-05-15T04:46:49.781Z,98.80
2019-05-15T04:49:19.087Z,99.00
2019-05-15T04:51:45.840Z,99.60
2019-05-15T04:54:13.475Z,99.40
2019-05-15T04:56:41.151Z,99.40
2019-05-15T04:59:10.166Z,99.30
2019-05-15T05:01:40.266Z,99.40
2019-05-15T05:04:09.366Z,99.70
2019-05-15T05:06:38.712Z,99.80
2019-05-15T05:09:09.237Z,99.30
2019-05-15T05:11:38.311Z,99.30
2019-05-15T05:14:08.264Z,99.20
2019-05-15T05:16:34.835Z,99.40
2019-05-15T05:19:02.767Z,99.10
2019-05-15T05:21:30.727Z,98.50
2019-05-15T05:23:58.658Z,98.90
2019-05-15T05:26:29.168Z,99.00
2019-05-15T05:29:01.051Z,99.00
2019-05-15T05:31:25.575Z,99.30
2019-05-15T05:33:53.202Z,99.40
2019-05-15T05:36:20.883Z,99.30
2019-05-15T05:38:49.390Z,99.60
2019-05-15T05:41:19.005Z,99.90
2019-05-15T05:43:48.743Z,99.70
2019-05-15T05:46:18.425Z,99.40
2019-05-15T05:48:46.043Z,99.60
2019-05-15T05:51:14.043Z,99.80
2019-05-15T05:53:41.742Z,99.90
2019-05-15T05:56:09.378Z,99.90
2019-05-15T05:58:39.058Z,99.00
2019-05-15T06:01:09.063Z,99.40
2019-05-15T06:03:35.799Z,99.30
2019-05-15T06:06:03.439Z,99.30
2019-05-15T06:08:31.108Z,98.90
2019-05-15T06:10:58.796Z,99.50
2019-05-15T06:13:28.915Z,99.80
2019-05-15T06:15:55.855Z,99.90
2019-05-15T06:18:23.529Z,99.90
2019-05-15T06:20:51.173Z,99.60
2019-05-15T06:23:23.600Z,99.30
2019-05-15T06:25:48.682Z,99.70
2019-05-15T06:28:19.183Z,99.70
2019-05-15T06:30:45.716Z,99.30
2019-05-15T06:33:13.685Z,99.50
2019-05-15T06:35:41.414Z,99.80
2019-05-15T06:38:09.083Z,99.60
2019-05-15T06:40:39.327Z,99.70
2019-05-15T06:43:08.592Z,99.60
2019-05-15T06:45:37.868Z,99.80
2019-05-15T06:48:05.146Z,99.90
2019-05-15T06:50:39.459Z,99.90
2019-05-15T06:53:10.434Z,99.70
2019-05-15T06:55:38.815Z,99.60
2019-05-15T06:58:09.036Z,99.50
2019-05-15T07:00:35.421Z,99.30
2019-05-15T07:03:16.880Z,99.80
2019-05-15T07:05:32.451Z,99.80
2019-05-15T07:08:00.130Z,99.70
2019-05-15T07:10:28.774Z,99.90
2019-05-15T07:12:58.509Z,99.70
2019-05-15T07:15:27.866Z,99.50
2019-05-15T07:17:57.874Z,99.10
2019-05-15T07:20:25.111Z,99.20
2019-05-15T07:22:53.288Z,99.90
2019-05-15T07:25:21.249Z,99.40
2019-05-15T07:27:49.247Z,99.50
2019-05-15T07:30:18.741Z,99.30
2019-05-15T07:32:48.788Z,99.40
2019-05-15T07:35:19.005Z,99.90
2019-05-15T07:37:47.824Z,99.90
2019-05-15T07:40:15.779Z,99.90
2019-05-15T07:42:43.504Z,99.90
2019-05-15T07:45:11.711Z,99.90
2019-05-15T07:47:39.412Z,99.50
2019-05-15T07:50:10.795Z,99.70
2019-05-15T07:52:39.707Z,99.50
2019-05-15T07:55:08.703Z,99.60
2019-05-15T07:57:39.330Z,99.60
2019-05-15T08:00:08.331Z,99.20
2019-05-15T08:02:37.963Z,99.00
2019-05-15T08:05:08.402Z,98.80
2019-05-15T08:07:38.602Z,98.80
2019-05-15T08:10:08.540Z,99.10
2019-05-15T08:12:35.417Z,99.30
2019-05-15T08:15:03.715Z,98.90
2019-05-15T08:17:31.406Z,98.40
2019-05-15T08:19:59.075Z,98.10
2019-05-15T08:22:28.509Z,98.20
2019-05-15T08:24:58.962Z,98.50
2019-05-15T08:27:25.799Z,97.70
2019-05-15T08:29:53.427Z,97.30
2019-05-15T08:32:21.119Z,97.50
2019-05-15T08:34:48.830Z,97.10
2019-05-15T08:37:18.237Z,97.80
2019-05-15T08:39:48.475Z,98.00
2019-05-15T08:42:15.453Z,97.80
2019-05-15T08:44:43.436Z,97.80
2019-05-15T08:47:19.211Z,97.60
2019-05-15T08:49:48.471Z,98.00
2019-05-15T08:52:18.728Z,98.00
2019-05-15T08:54:48.446Z,97.80
2019-05-15T08:57:15.209Z,97.20
2019-05-15T08:59:42.835Z,96.90
2019-05-15T09:02:10.511Z,96.80
2019-05-15T09:04:38.778Z,97.30
2019-05-15T09:07:08.980Z,97.20
2019-05-15T09:09:38.280Z,96.70
2019-05-15T09:12:08.122Z,96.50
2019-05-15T09:14:34.775Z,96.60
2019-05-15T09:17:02.451Z,97.20
2019-05-15T09:19:30.472Z,97.30
2019-05-15T09:21:58.624Z,97.50
2019-05-15T09:24:28.593Z,97.20
2019-05-15T09:26:56.136Z,96.30
2019-05-15T09:29:23.834Z,96.50
2019-05-15T09:31:51.495Z,96.00
2019-05-15T09:34:19.132Z,96.20
2019-05-15T09:36:48.541Z,96.70
2019-05-15T09:39:18.246Z,96.70
2019-05-15T09:41:45.920Z,97.40
2019-05-15T09:44:13.562Z,96.90
2019-05-15T09:46:41.230Z,96.70
2019-05-15T09:49:09.033Z,96.60
2019-05-15T09:51:38.466Z,96.60
2019-05-15T09:54:08.152Z,97.00
2019-05-15T09:56:38.305Z,97.00
2019-05-15T09:59:05.081Z,96.70
2019-05-15T10:01:32.784Z,96.30
2019-05-15T10:04:00.875Z,96.40
2019-05-15T10:06:28.811Z,96.70
2019-05-15T10:08:56.550Z,96.20
2019-05-15T10:11:24.255Z,96.30
2019-05-15T10:13:52.347Z,96.60
2019-05-15T10:16:20.111Z,96.30
2019-05-15T10:18:50.837Z,96.80
2019-05-15T10:21:18.691Z,96.10
2019-05-15T10:23:49.235Z,96.60
2019-05-15T10:26:15.922Z,96.40
2019-05-15T10:28:43.595Z,96.20
2019-05-15T10:31:11.378Z,96.50
2019-05-15T10:33:39.525Z,96.50
2019-05-15T10:36:08.386Z,96.40
2019-05-15T10:38:38.942Z,96.00
2019-05-15T10:41:13.894Z,96.10
2019-05-15T10:43:35.029Z,96.30
2019-05-15T10:46:02.738Z,95.50
2019-05-15T10:48:30.408Z,95.00
2019-05-15T10:51:01.906Z,95.50
2019-05-15T10:53:29.643Z,95.90
2019-05-15T10:55:59.655Z,96.20
2019-05-15T10:58:28.472Z,96.50
2019-05-15T11:01:00.963Z,96.50
2019-05-15T11:03:25.433Z,96.20
2019-05-15T11:05:53.320Z,96.90
2019-05-15T11:08:20.996Z,96.30
2019-05-15T11:10:49.410Z,96.40
2019-05-15T11:13:18.635Z,96.80
2019-05-15T11:15:49.190Z,96.80
2019-05-15T11:18:16.251Z,96.00
2019-05-15T11:20:43.899Z,96.60
2019-05-15T11:23:13.202Z,96.50
2019-05-15T11:25:40.843Z,96.90
2019-05-15T11:28:08.511Z,96.50
2019-05-15T11:30:39.017Z,96.00
2019-05-15T11:33:05.615Z,95.80
2019-05-15T11:35:33.247Z,95.60
2019-05-15T11:38:00.926Z,95.90
2019-05-15T11:40:28.574Z,96.80
2019-05-15T11:42:56.287Z,95.70
2019-05-15T11:45:23.992Z,96.40
2019-05-15T11:47:52.004Z,95.90
2019-05-15T11:50:20.699Z,96.20
2019-05-15T11:52:48.754Z,96.10
2019-05-15T11:55:16.408Z,96.50
2019-05-15T11:57:47.605Z,96.30
2019-05-15T12:00:17.366Z,96.50
2019-05-15T12:02:43.421Z,96.40
2019-05-15T12:05:11.556Z,95.50
2019-05-15T12:07:39.207Z,95.90
2019-05-15T12:10:10.352Z,95.60
2019-05-15T12:12:38.506Z,95.50
2019-05-15T12:15:06.810Z,95.50
2019-05-15T12:17:34.718Z,95.50
2019-05-15T12:20:06.196Z,96.10
2019-05-15T12:22:31.770Z,96.00
2019-05-15T12:25:00.416Z,95.70
2019-05-15T12:27:28.744Z,96.40
2019-05-15T12:29:59.760Z,95.60
2019-05-15T12:32:33.092Z,96.00
2019-05-15T12:34:55.163Z,95.80
2019-05-15T12:37:22.899Z,95.60
2019-05-15T12:59:46.139Z,94.50
2019-05-15T13:02:14.043Z,94.00
2019-05-15T13:04:41.782Z,94.00
2019-05-15T13:07:13.996Z,93.90
2019-05-15T13:09:38.827Z,94.50
2019-05-15T13:12:08.416Z,93.20
2019-05-15T13:14:35.857Z,92.80
2019-05-15T13:17:03.493Z,94.00
2019-05-15T13:19:31.158Z,95.10
2019-05-15T13:21:58.790Z,93.80
2019-05-15T13:24:28.406Z,94.60
2019-05-15T13:26:58.220Z,94.50
2019-05-15T13:29:25.495Z,94.00
2019-05-15T13:31:53.134Z,94.50
2019-05-15T13:34:21.057Z,94.40
2019-05-15T13:36:48.800Z,94.60
2019-05-15T13:39:18.433Z,94.20
2019-05-15T13:41:48.349Z,94.50
2019-05-15T13:44:18.552Z,95.10
2019-05-15T13:46:45.677Z,94.20
2019-05-15T13:49:13.364Z,94.70
2019-05-15T13:51:40.987Z,95.30
2019-05-15T13:54:08.876Z,94.70
2019-05-15T13:56:38.187Z,94.50
2019-05-15T13:59:07.894Z,94.70
2019-05-15T14:01:35.370Z,94.60
2019-05-15T14:04:03.332Z,93.80
2019-05-15T14:06:30.971Z,93.60
2019-05-15T14:09:01.755Z,93.80
2019-05-15T14:11:49.664Z,94.10
2019-05-15T14:14:04.743Z,94.30
2019-05-15T14:16:41.551Z,94.20
2019-05-15T14:19:09.247Z,94.60
2019-05-15T14:21:37.902Z,94.80
2019-05-15T14:24:05.977Z,94.10
2019-05-15T14:26:34.476Z,94.70
2019-05-15T14:29:05.313Z,94.10
2019-05-15T14:31:31.872Z,94.00
2019-05-15T14:33:59.851Z,94.20
2019-05-15T14:36:28.759Z,94.50
2019-05-15T14:38:58.582Z,94.60
2019-05-15T14:41:26.031Z,94.70
2019-05-15T14:43:53.704Z,94.50
2019-05-15T14:46:21.654Z,94.40
2019-05-15T14:48:49.388Z,94.40
2019-05-15T14:51:19.317Z,94.60
2019-05-15T14:53:48.861Z,94.60
2019-05-15T14:56:15.807Z,94.70
2019-05-15T14:58:43.487Z,94.70
2019-05-15T15:01:13.066Z,95.10
2019-05-15T15:03:41.044Z,94.80
2019-05-15T15:06:08.821Z,95.40
2019-05-15T15:08:36.635Z,95.30
2019-05-15T15:11:04.256Z,95.00
2019-05-15T15:13:32.012Z,94.90
2019-05-15T15:15:59.680Z,94.60
2019-05-15T15:18:28.120Z,94.60
2019-05-15T15:20:58.028Z,93.60
2019-05-15T15:23:28.158Z,93.60
2019-05-15T15:25:54.994Z,93.90
2019-05-15T15:28:23.065Z,93.90
2019-05-15T15:30:50.804Z,93.50
2019-05-15T15:33:18.443Z,93.80
2019-05-15T15:35:48.573Z,94.10
2019-05-15T15:38:15.828Z,93.50
2019-05-15T15:40:43.504Z,94.10
2019-05-15T15:43:11.140Z,94.20
2019-05-15T15:45:39.338Z,93.90
2019-05-15T15:48:08.393Z,93.50
2019-05-15T15:50:38.332Z,93.60
2019-05-15T15:53:08.540Z,94.20
2019-05-15T15:55:38.255Z,94.20
2019-05-15T15:58:05.061Z,94.20
2019-05-15T16:00:32.738Z,94.30
2019-05-15T16:03:00.380Z,94.00
2019-05-15T16:05:29.116Z,93.40
2019-05-15T16:07:59.048Z,93.70
2019-05-15T16:10:28.253Z,93.60
2019-05-15T16:12:58.134Z,93.60
2019-05-15T16:15:25.139Z,93.90
2019-05-15T16:17:53.152Z,93.90
2019-05-15T16:20:20.899Z,93.90
2019-05-15T16:22:48.736Z,94.20
2019-05-15T16:25:18.412Z,94.10
2019-05-15T16:27:48.648Z,93.90
2019-05-15T16:30:18.690Z,93.90
2019-05-15T16:32:45.903Z,94.00
2019-05-15T16:35:13.747Z,93.70
2019-05-15T16:37:41.679Z,93.90
2019-05-15T16:40:09.416Z,94.10
2019-05-15T16:42:38.488Z,93.60
2019-05-15T16:45:09.453Z,94.20
2019-05-15T16:47:38.863Z,94.20
2019-05-15T16:50:06.326Z,94.20
2019-05-15T16:52:33.963Z,94.50
2019-05-15T16:55:01.606Z,94.60
2019-05-15T16:57:29.283Z,94.80
2019-05-15T16:59:58.615Z,96.00
2019-05-15T17:02:28.250Z,95.10
2019-05-15T17:04:56.387Z,95.20
2019-05-15T17:07:24.239Z,95.20
2019-05-15T17:09:52.152Z,95.40
2019-05-15T17:12:19.832Z,95.40
2019-05-15T17:14:48.568Z,95.10
2019-05-15T17:17:18.382Z,95.30
2019-05-15T17:19:48.356Z,95.50
2019-05-15T17:22:15.545Z,95.70
2019-05-15T17:24:43.452Z,95.90
2019-05-15T17:27:12.318Z,96.10
2019-05-15T17:29:40.252Z,97.50
2019-05-15T17:32:08.510Z,98.30
2019-05-15T17:34:38.002Z,99.10
2019-05-15T17:37:05.840Z,99.00
2019-05-15T17:39:37.800Z,99.20
2019-05-15T17:42:02.871Z,99.50
2019-05-15T17:44:30.511Z,99.70
2019-05-15T17:46:58.519Z,99.90
2019-05-15T17:49:28.049Z,99.90
2019-05-15T17:51:58.090Z,99.90
2019-05-15T17:54:25.261Z,99.90
2019-05-15T17:56:52.923Z,99.70
2019-05-15T17:59:20.938Z,99.20
2019-05-15T18:01:49.246Z,99.80
2019-05-15T18:04:18.888Z,99.60
2019-05-15T18:06:48.401Z,99.90
2019-05-15T18:09:15.823Z,99.90
2019-05-15T18:11:44.666Z,99.90
2019-05-15T18:14:12.890Z,99.90
2019-05-15T18:16:41.487Z,99.90
2019-05-15T18:19:10.796Z,99.90
2019-05-15T18:21:38.651Z,99.90
2019-05-15T18:24:09.308Z,99.90
2019-05-15T18:26:38.664Z,99.90
2019-05-15T18:29:05.976Z,99.90
2019-05-15T18:31:33.652Z,99.90
2019-05-15T18:34:01.630Z,99.90
2019-05-15T18:36:29.309Z,99.90
2019-05-15T18:38:58.923Z,99.90
2019-05-15T18:41:29.443Z,99.90
2019-05-15T18:43:57.870Z,99.90
2019-05-15T18:46:25.735Z,99.90
2019-05-15T18:48:53.667Z,99.90
2019-05-15T18:51:21.484Z,99.90
2019-05-15T18:53:49.174Z,99.90
2019-05-15T18:56:18.724Z,99.70
2019-05-15T18:58:48.390Z,99.40
2019-05-15T19:01:17.801Z,99.10
2019-05-15T19:03:45.579Z,99.50
2019-05-15T19:06:13.219Z,99.40
2019-05-15T19:08:41.519Z,99.50
2019-05-15T19:11:09.223Z,98.90
2019-05-15T19:13:38.786Z,99.00
2019-05-15T19:16:06.337Z,99.90
2019-05-15T19:18:34.092Z,99.50
2019-05-15T19:21:01.999Z,99.30
2019-05-15T19:23:29.743Z,99.00
2019-05-15T19:25:57.878Z,99.10
2019-05-15T19:28:28.352Z,99.30
2019-05-15T19:30:55.454Z,99.00
2019-05-15T19:33:36.345Z,98.90
2019-05-15T19:35:52.492Z,98.90
2019-05-15T19:38:20.167Z,99.20
2019-05-15T19:40:47.926Z,99.10
2019-05-15T19:43:15.671Z,99.30
2019-05-15T19:45:45.038Z,99.10
2019-05-15T19:48:12.709Z,99.80
2019-05-15T19:50:40.352Z,99.90
2019-05-15T19:53:08.340Z,99.90
2019-05-15T19:55:36.005Z,99.90
2019-05-15T19:58:03.747Z,99.90
2019-05-15T20:00:31.650Z,99.90
2019-05-15T20:02:59.320Z,99.90
2019-05-15T20:05:28.946Z,99.80
2019-05-15T20:07:58.797Z,99.90
2019-05-15T20:10:26.265Z,99.90
2019-05-15T20:12:53.941Z,99.90
2019-05-15T20:15:21.580Z,99.90
2019-05-15T20:17:49.256Z,99.90
2019-05-15T20:20:18.704Z,99.90
2019-05-15T20:22:46.446Z,99.90
2019-05-15T20:25:14.851Z,99.90
2019-05-15T20:27:42.532Z,99.90
2019-05-15T20:30:10.599Z,99.90
2019-05-15T20:32:38.794Z,99.90
2019-05-15T20:35:08.671Z,99.90
2019-05-15T20:37:39.131Z,99.90
2019-05-15T20:40:09.212Z,99.90
2019-05-15T20:42:38.017Z,99.90
2019-05-15T20:45:11.299Z,99.90
2019-05-15T20:47:38.574Z,99.90
2019-05-15T20:50:08.297Z,99.90
2019-05-15T20:52:35.343Z,99.90
2019-05-15T20:55:04.409Z,99.90
2019-05-15T20:57:32.648Z,99.90
2019-05-15T21:00:00.282Z,99.90
2019-05-15T21:02:29.042Z,99.90
2019-05-15T21:04:58.356Z,99.80
2019-05-15T21:07:37.935Z,99.90
2019-05-15T21:09:55.713Z,99.90
2019-05-15T21:12:26.252Z,99.90
2019-05-15T21:14:53.179Z,99.90
2019-05-15T21:17:21.096Z,99.90
2019-05-15T21:19:49.029Z,99.90
2019-05-15T21:22:18.060Z,99.90
2019-05-15T21:24:45.808Z,99.70
2019-05-15T21:27:13.832Z,99.70
2019-05-15T21:29:41.467Z,99.90
2019-05-15T21:32:09.389Z,99.90
2019-05-15T21:34:41.170Z,99.90
2019-05-15T21:37:08.593Z,99.90
2019-05-15T21:39:36.207Z,99.90
2019-05-15T21:42:03.918Z,99.80
2019-05-15T21:44:31.595Z,99.40
2019-05-15T21:46:59.251Z,99.00
2019-05-15T21:49:28.188Z,99.30
2019-05-15T21:51:58.033Z,99.20
2019-05-15T21:54:28.033Z,99.40
2019-05-15T21:57:06.653Z,99.80
2019-05-15T21:59:24.664Z,99.90
2019-05-15T22:01:52.298Z,99.90
2019-05-15T22:04:19.991Z,99.90
2019-05-15T22:06:49.066Z,99.90
2019-05-15T22:09:18.622Z,99.90
2019-05-15T22:11:49.230Z,99.90
2019-05-15T22:14:18.197Z,99.90
2019-05-15T22:16:45.998Z,99.90
2019-05-15T22:19:13.739Z,99.90
2019-05-15T22:21:41.411Z,99.90
2019-05-15T22:24:09.051Z,99.90
2019-05-15T22:26:38.143Z,99.60
2019-05-15T22:29:05.866Z,99.90
2019-05-15T22:31:33.607Z,99.90
2019-05-15T22:34:01.242Z,99.60
2019-05-15T22:36:28.879Z,99.50
2019-05-15T22:38:58.911Z,99.60
2019-05-15T22:41:27.941Z,99.40
2019-05-15T22:43:55.315Z,99.40
2019-05-15T22:46:23.127Z,99.40
2019-05-15T22:48:51.172Z,99.40
2019-05-15T22:51:18.811Z,99.70
2019-05-15T22:53:48.770Z,99.90
2019-05-15T22:56:18.097Z,99.90
2019-05-15T22:58:45.248Z,99.90
2019-05-15T23:01:12.887Z,99.40
2019-05-15T23:03:40.631Z,99.70
2019-05-15T23:06:08.381Z,99.60
2019-05-15T23:08:38.381Z,99.90
2019-05-15T23:11:05.707Z,99.90
2019-05-15T23:13:33.379Z,99.90
2019-05-15T23:16:01.010Z,99.90
2019-05-15T23:18:28.959Z,99.90
2019-05-15T23:20:56.599Z,99.90
2019-05-15T23:23:24.259Z,99.90
2019-05-15T23:25:51.901Z,99.90
2019-05-15T23:28:19.570Z,99.90
2019-05-15T23:30:48.543Z,99.90
2019-05-15T23:33:18.693Z,99.90
2019-05-15T23:35:48.363Z,99.90
2019-05-15T23:38:15.127Z,99.90
2019-05-15T23:40:42.838Z,99.90
2019-05-15T23:43:10.516Z,99.90
2019-05-15T23:45:38.976Z,99.90
2019-05-15T23:48:06.895Z,99.90
2019-05-15T23:50:34.533Z,99.90
2019-05-15T23:53:02.202Z,99.90
2019-05-15T23:55:29.843Z,99.90
2019-05-15T23:57:58.486Z,99.90
